Time;durP1;ratioP1;P1;durP2;ratioP2;P2;SDS_P1;SDS_P2;PMS_P1;PMS_P2;Temp;Humidity;BMP_temperature;BMP_pressure;BME280_temperature;BME280_humidity;BME280_pressure;Samples;Min_cycle;Max_cycle;Signal;HPM_P1;HPM_P2
2021/07/19 00:02:02;;;;;;;22.13;18.90;;;;;;;23.10;88.03;99899.44;1817946;77;21566;-78
2021/07/19 00:04:33;;;;;;;21.13;18.17;;;;;;;23.04;87.89;99905.75;1822004;77;21055;-76
2021/07/19 00:07:02;;;;;;;22.23;19.77;;;;;;;23.01;87.88;99909.19;1822005;77;21047;-75
2021/07/19 00:09:28;;;;;;;20.87;18.03;;;;;;;23.02;87.92;99905.89;1821669;77;22074;-77
2021/07/19 00:11:55;;;;;;;22.57;18.97;;;;;;;23.01;87.74;99901.02;1818645;77;21074;-77
2021/07/19 00:14:23;;;;;;;24.73;19.87;;;;;;;23.02;87.80;99902.59;1817861;78;20982;-76
2021/07/19 00:16:52;;;;;;;25.10;19.27;;;;;;;23.01;88.07;99904.31;1822137;77;21003;-75
2021/07/19 00:19:18;;;;;;;22.63;18.37;;;;;;;23.02;88.51;99906.67;1821446;77;21078;-77
2021/07/19 00:21:48;;;;;;;21.30;18.70;;;;;;;23.04;88.86;99909.05;1818138;77;21525;-77
2021/07/19 00:24:15;;;;;;;24.53;19.40;;;;;;;23.04;89.28;99899.52;1812412;77;21058;-77
2021/07/19 00:26:43;;;;;;;21.87;19.37;;;;;;;23.06;89.51;99902.66;1818408;77;21039;-76
2021/07/19 00:29:10;;;;;;;20.37;17.93;;;;;;;23.06;89.67;99898.00;1823768;77;21235;-77
2021/07/19 00:31:39;;;;;;;19.83;17.63;;;;;;;23.06;89.77;99891.19;1789920;77;21042;-78
2021/07/19 00:34:07;;;;;;;19.77;17.67;;;;;;;23.06;89.97;99895.27;1820162;77;21002;-76
2021/07/19 00:36:35;;;;;;;20.10;17.90;;;;;;;23.06;90.20;99891.19;1822686;77;20928;-77
2021/07/19 00:39:06;;;;;;;20.90;18.60;;;;;;;23.08;90.29;99889.48;1820122;77;21109;-78
2021/07/19 00:41:33;;;;;;;;;;;;;;;23.08;90.50;99886.19;1817098;77;21094;-76
2021/07/19 00:44:00;;;;;;;20.80;18.50;;;;;;;23.09;90.72;99889.69;1820434;77;20523;-78
2021/07/19 00:46:28;;;;;;;19.63;17.60;;;;;;;23.08;90.93;99892.99;1818913;77;21716;-75
2021/07/19 00:48:54;;;;;;;20.90;18.20;;;;;;;23.08;91.00;99888.91;1820434;77;21030;-77
2021/07/19 00:51:21;;;;;;;20.33;18.23;;;;;;;23.08;91.02;99883.45;1799648;77;21343;-75
2021/07/19 00:53:48;;;;;;;19.97;17.87;;;;;;;23.09;91.02;99886.97;1819305;77;20987;-76
2021/07/19 00:56:16;;;;;;;21.87;18.77;;;;;;;23.09;91.05;99884.24;1819277;78;21609;-76
2021/07/19 00:58:44;;;;;;;20.53;18.23;;;;;;;23.09;91.09;99882.30;1818132;77;21736;-77
2021/07/19 01:01:10;;;;;;;20.83;18.63;;;;;;;23.08;91.02;99882.67;1820497;77;21023;-77
2021/07/19 01:03:38;;;;;;;21.23;18.80;;;;;;;23.06;91.01;99883.02;1821147;76;21027;-78
2021/07/19 01:06:06;;;;;;;21.47;18.23;;;;;;;23.06;91.00;99882.23;1814827;78;21068;-77
2021/07/19 01:08:35;;;;;;;22.63;18.17;;;;;;;23.06;90.92;99884.95;1824428;77;21701;-78
2021/07/19 01:11:03;;;;;;;21.30;19.10;;;;;;;23.05;90.84;99876.58;1822211;77;21062;-77
2021/07/19 01:13:31;;;;;;;19.77;17.80;;;;;;;23.04;90.82;99881.24;1820240;77;20983;-77
2021/07/19 01:15:58;;;;;;;20.83;18.63;;;;;;;23.02;90.83;99876.71;1821750;77;21091;-78
2021/07/19 01:18:26;;;;;;;20.30;17.63;;;;;;;23.02;90.78;99877.29;1820717;77;21240;-77
2021/07/19 01:21:08;;;;;;;20.93;17.20;;;;;;;23.00;90.63;99875.48;1822440;77;20998;-78
2021/07/19 01:24:04;;;;;;;19.63;17.27;;;;;;;22.99;90.57;99879.36;1809825;77;21515;-76
2021/07/19 01:27:13;;;;;;;24.33;18.47;;;;;;;22.94;90.47;99882.59;1823057;77;21518;-77
2021/07/19 01:29:40;;;;;;;22.87;17.23;;;;;;;22.92;90.38;99881.33;1816920;77;21067;-77
2021/07/19 01:32:08;;;;;;;18.37;16.30;;;;;;;22.87;90.26;99880.27;1826077;77;21007;-77
2021/07/19 01:34:35;;;;;;;20.97;16.97;;;;;;;22.84;90.28;99875.53;1824041;77;20896;-76
2021/07/19 01:37:03;;;;;;;19.70;17.17;;;;;;;22.81;90.33;99870.80;1822534;77;21479;-77
2021/07/19 01:39:37;;;;;;;18.83;16.70;;;;;;;22.79;90.39;99870.35;1822829;77;20944;-77
2021/07/19 01:42:06;;;;;;;20.47;16.80;;;;;;;22.76;90.49;99866.97;1823430;77;21065;-77
2021/07/19 01:44:34;;;;;;;19.73;16.97;;;;;;;22.75;90.66;99872.22;1816302;77;21493;-76
2021/07/19 01:47:01;;;;;;;22.53;17.10;;;;;;;22.73;90.74;99875.27;1784062;77;21128;-77
2021/07/19 01:49:30;;;;;;;21.67;17.60;;;;;;;22.71;90.76;99883.03;1790085;77;21121;-77
2021/07/19 01:51:57;;;;;;;19.67;17.57;;;;;;;22.68;90.88;99883.73;1801644;78;21023;-76
2021/07/19 01:54:26;;;;;;;19.23;17.20;;;;;;;22.67;90.99;99890.30;1819467;77;20951;-75
2021/07/19 01:56:54;;;;;;;21.33;17.40;;;;;;;22.62;91.06;99884.57;1820564;77;21023;-73
2021/07/19 01:59:21;;;;;;;18.93;16.87;;;;;;;22.59;91.11;99886.64;1797316;77;21015;-77
2021/07/19 02:01:50;;;;;;;19.57;17.47;;;;;;;22.58;91.15;99876.12;1815648;77;21103;-74
2021/07/19 02:04:18;;;;;;;19.00;15.97;;;;;;;22.56;91.19;99875.67;1818706;77;21656;-76
2021/07/19 02:06:46;;;;;;;22.17;17.83;;;;;;;22.55;91.26;99883.05;1820391;77;20983;-75
2021/07/19 02:09:15;;;;;;;18.47;16.07;;;;;;;22.54;91.36;99878.77;1795955;78;21098;-78
2021/07/19 02:11:47;;;;;;;18.53;16.53;;;;;;;22.51;91.35;99882.19;1820183;78;21595;-77
2021/07/19 02:14:15;;;;;;;19.37;16.90;;;;;;;22.49;91.34;99881.74;1816633;77;21113;-75
2021/07/19 02:16:51;;;;;;;21.33;17.07;;;;;;;22.46;91.27;99880.51;1817881;77;21450;-76
2021/07/19 02:19:21;;;;;;;18.53;16.30;;;;;;;22.43;91.12;99887.23;1821124;77;21034;-76
2021/07/19 02:21:51;;;;;;;20.57;15.65;;;;;;;22.40;91.04;99881.91;1805301;78;21497;-76
2021/07/19 02:24:27;;;;;;;20.43;15.93;;;;;;;22.36;91.07;99876.19;1818300;77;21043;-76
2021/07/19 02:27:07;;;;;;;16.67;14.90;;;;;;;22.30;91.25;99877.59;1787710;77;23568;-73
2021/07/19 02:29:35;;;;;;;18.27;15.27;;;;;;;22.24;91.52;99884.67;1793618;77;21171;-76
2021/07/19 02:32:04;;;;;;;18.00;16.03;;;;;;;22.19;91.79;99890.36;1820059;77;21073;-76
2021/07/19 02:34:31;;;;;;;18.63;16.63;;;;;;;22.14;92.09;99887.86;1814712;78;21006;-75
2021/07/19 02:36:58;;;;;;;18.63;16.73;;;;;;;22.09;92.37;99882.70;1818249;77;21045;-76
2021/07/19 02:39:27;;;;;;;20.27;17.33;;;;;;;22.09;92.59;99881.34;1814166;77;21494;-76
2021/07/19 02:41:54;;;;;;;20.50;17.43;;;;;;;22.11;92.71;99885.06;1822096;77;21417;-75
2021/07/19 02:44:23;;;;;;;20.17;18.07;;;;;;;22.15;92.84;99883.23;1820171;77;20983;-76
2021/07/19 02:47:01;;;;;;;20.40;18.20;;;;;;;22.19;92.94;99890.36;1794322;77;21103;-76
2021/07/19 02:49:28;;;;;;;20.50;18.33;;;;;;;22.24;93.01;99899.63;1819953;77;21032;-76
2021/07/19 02:51:57;;;;;;;19.53;17.53;;;;;;;22.29;93.07;99902.65;1820588;77;21461;-75
2021/07/19 02:54:23;;;;;;;20.20;17.67;;;;;;;22.32;93.09;99906.61;1819210;77;20964;-75
2021/07/19 02:56:51;;;;;;;20.57;18.47;;;;;;;22.36;93.12;99904.75;1820153;77;21034;-76
2021/07/19 02:59:19;;;;;;;22.30;18.60;;;;;;;22.40;93.15;99903.69;1820856;77;20998;-76
2021/07/19 03:01:49;;;;;;;20.20;17.97;;;;;;;22.44;93.21;99901.05;1804895;77;21019;-75
2021/07/19 03:04:16;;;;;;;20.13;18.13;;;;;;;22.49;93.14;99908.95;1774611;78;21615;-76
2021/07/19 03:06:45;;;;;;;20.27;18.00;;;;;;;22.52;93.13;99913.70;1820112;77;21093;-75
2021/07/19 03:09:13;;;;;;;19.97;17.83;;;;;;;22.55;93.17;99907.55;1801330;77;21524;-75
2021/07/19 03:11:44;;;;;;;21.10;18.90;;;;;;;22.60;93.23;99912.70;1799129;77;21632;-75
2021/07/19 03:14:21;;;;;;;20.27;18.23;;;;;;;22.65;93.33;99913.80;1804563;77;21053;-75
2021/07/19 03:16:50;;;;;;;19.53;17.43;;;;;;;22.71;93.19;99915.12;1820136;77;21108;-75
2021/07/19 03:19:18;;;;;;;21.13;18.47;;;;;;;22.76;92.81;99910.53;1810718;77;21033;-75
2021/07/19 03:21:45;;;;;;;21.50;19.20;;;;;;;22.82;92.39;99914.56;1821811;77;21035;-74
2021/07/19 03:24:14;;;;;;;21.47;18.83;;;;;;;22.87;91.91;99919.17;1794905;78;20936;-76
2021/07/19 03:26:44;;;;;;;21.03;18.30;;;;;;;22.94;91.49;99919.94;1819084;77;21687;-76
2021/07/19 03:29:16;;;;;;;21.83;19.47;;;;;;;23.01;91.16;99920.66;1821798;78;21517;-75
2021/07/19 03:32:00;;;;;;;21.97;18.57;;;;;;;23.07;90.75;99917.87;1755539;80;21066;-76
2021/07/19 03:34:27;;;;;;;21.70;19.40;;;;;;;23.15;90.37;99926.41;1797857;77;21066;-75
2021/07/19 03:36:56;;;;;;;20.63;18.53;;;;;;;23.24;89.95;99922.13;1820130;77;21612;-75
2021/07/19 03:39:24;;;;;;;22.27;19.33;;;;;;;23.33;89.59;99929.48;1822965;77;20983;-76
2021/07/19 03:41:52;;;;;;;20.60;18.40;;;;;;;23.40;89.30;99923.63;1820804;77;21047;-76
2021/07/19 03:44:20;;;;;;;18.63;16.63;;;;;;;23.50;89.07;99927.72;1821283;77;21109;-76
2021/07/19 03:46:49;;;;;;;20.77;17.27;;;;;;;23.59;88.71;99935.66;1819559;77;20987;-74
2021/07/19 03:49:18;;;;;;;19.43;17.40;;;;;;;23.64;88.28;99938.89;1817325;77;21065;-76
2021/07/19 03:51:48;;;;;;;19.23;17.13;;;;;;;23.69;87.73;99937.86;1816826;78;21011;-75
2021/07/19 03:54:16;;;;;;;20.47;18.03;;;;;;;23.72;86.91;99939.05;1822104;77;21109;-77
2021/07/19 03:56:43;;;;;;;20.00;16.97;;;;;;;23.78;86.23;99937.61;1819261;77;20963;-75
2021/07/19 03:59:13;;;;;;;20.60;17.17;;;;;;;23.88;85.74;99943.26;1822247;77;21087;-76
2021/07/19 04:01:40;;;;;;;17.53;15.73;;;;;;;23.97;84.95;99944.40;1817842;77;20987;-75
2021/07/19 04:04:08;;;;;;;22.50;18.03;;;;;;;24.07;83.80;99946.53;1798182;78;21033;-75
2021/07/19 04:06:37;;;;;;;19.90;17.60;;;;;;;24.16;82.65;99952.34;1818356;77;21123;-76
2021/07/19 04:09:06;;;;;;;19.63;17.17;;;;;;;24.20;81.88;99945.78;1821551;77;20923;-74
2021/07/19 04:11:34;;;;;;;20.07;17.33;;;;;;;24.27;81.50;99949.20;1814569;77;20974;-76
2021/07/19 04:14:03;;;;;;;18.80;16.67;;;;;;;24.34;81.33;99947.95;1787441;78;21416;-77
2021/07/19 04:16:29;;;;;;;18.87;16.57;;;;;;;24.44;80.62;99938.40;1764739;78;21112;-76
2021/07/19 04:18:58;;;;;;;18.30;15.67;;;;;;;24.53;79.97;99949.28;1798962;78;21933;-76
2021/07/19 04:21:25;;;;;;;20.07;16.17;;;;;;;24.62;79.43;99941.42;1801284;78;21104;-75
2021/07/19 04:23:53;;;;;;;24.20;18.07;;;;;;;24.71;78.78;99944.11;1798732;78;21455;-77
2021/07/19 04:26:22;;;;;;;23.07;17.57;;;;;;;24.81;78.44;99937.23;1818770;77;21144;-76
2021/07/19 04:28:53;;;;;;;24.80;19.80;;;;;;;24.92;78.25;99940.11;1815266;77;21093;-73
2021/07/19 04:31:20;;;;;;;26.13;20.00;;;;;;;25.01;77.94;99940.05;1734843;79;21108;-76
2021/07/19 04:33:55;;;;;;;27.60;20.70;;;;;;;25.11;77.60;99945.45;1819982;77;21026;-78
2021/07/19 04:36:23;;;;;;;23.30;19.43;;;;;;;25.20;77.08;99943.82;1820023;77;21548;-76
2021/07/19 04:38:50;;;;;;;21.67;19.07;;;;;;;25.30;76.81;99945.90;1821763;77;21077;-76
2021/07/19 04:41:19;;;;;;;23.73;20.50;;;;;;;25.40;76.46;99941.17;1823365;77;21069;-76
2021/07/19 04:43:48;;;;;;;22.37;17.33;;;;;;;25.50;76.09;99943.80;1824424;77;21097;-75
2021/07/19 04:46:16;;;;;;;19.33;17.27;;;;;;;25.61;75.67;99931.64;1829409;77;21478;-76
2021/07/19 04:48:44;;;;;;;21.50;18.00;;;;;;;25.69;75.19;99931.32;1816409;77;21046;-77
2021/07/19 04:51:11;;;;;;;23.90;18.70;;;;;;;25.79;74.95;99935.34;1763520;80;21497;-75
2021/07/19 04:53:39;;;;;;;22.43;18.40;;;;;;;25.88;74.25;99940.55;1821355;77;21031;-77
2021/07/19 04:56:06;;;;;;;24.80;18.60;;;;;;;25.96;74.47;99934.78;1820322;78;21101;-76
2021/07/19 04:58:33;;;;;;;20.30;18.03;;;;;;;26.09;74.37;99935.85;1819881;77;21194;-77
2021/07/19 05:01:04;;;;;;;22.33;18.17;;;;;;;26.19;74.02;99938.70;1798224;78;20995;-77
2021/07/19 05:03:34;;;;;;;20.27;17.85;;;;;;;26.32;73.76;99934.30;1787137;79;20967;-76
2021/07/19 05:06:00;;;;;;;21.07;17.23;;;;;;;26.46;72.89;99933.64;1799702;79;20920;-76
2021/07/19 05:08:27;;;;;;;20.17;17.60;;;;;;;26.56;72.19;99929.64;1760682;80;21173;-77
2021/07/19 05:10:54;;;;;;;22.80;16.37;;;;;;;26.67;71.97;99920.12;1776994;80;21006;-76
2021/07/19 05:13:20;;;;;;;18.80;16.77;;;;;;;26.79;71.99;99922.55;1837867;77;20987;-75
2021/07/19 05:15:47;;;;;;;22.10;16.97;;;;;;;26.89;71.35;99912.83;1824936;77;21098;-76
2021/07/19 05:18:18;;;;;;;19.87;16.00;;;;;;;26.99;69.87;99907.20;1818189;77;20998;-76
2021/07/19 05:20:45;;;;;;;20.43;15.67;;;;;;;27.09;69.42;99913.31;1821539;77;21136;-76
2021/07/19 05:23:12;;;;;;;16.83;15.00;;;;;;;27.21;68.81;99912.20;1822012;77;21054;-76
2021/07/19 05:25:39;;;;;;;18.73;16.80;;;;;;;27.30;68.47;99913.42;1807275;77;21470;-77
2021/07/19 05:28:10;;;;;;;21.77;16.33;;;;;;;27.39;67.65;99910.33;1818638;77;21046;-76
2021/07/19 05:30:43;;;;;;;21.83;16.27;;;;;;;27.49;67.35;99915.66;1820611;77;21055;-77
2021/07/19 05:33:10;;;;;;;17.87;16.00;;;;;;;27.59;67.03;99919.01;1813600;77;21526;-76
2021/07/19 05:35:37;;;;;;;22.97;16.43;;;;;;;27.73;66.49;99915.52;1822482;77;21011;-76
2021/07/19 05:38:04;;;;;;;19.80;15.67;;;;;;;27.85;65.73;99915.77;1762384;79;21538;-75
2021/07/19 05:40:33;;;;;;;16.47;14.67;;;;;;;27.96;65.44;99920.67;1767995;79;21166;-77
2021/07/19 05:43:00;;;;;;;20.00;17.50;;;;;;;28.09;65.40;99921.08;1824657;77;21069;-76
2021/07/19 05:45:27;;;;;;;21.30;16.23;;;;;;;28.17;64.52;99924.05;1813349;77;21098;-76
2021/07/19 05:47:55;;;;;;;18.83;15.93;;;;;;;28.25;63.50;99920.89;1815717;78;21927;-76
2021/07/19 05:50:22;;;;;;;18.83;16.67;;;;;;;28.34;63.43;99927.97;1818348;77;21093;-77
2021/07/19 05:52:49;;;;;;;18.23;15.87;;;;;;;28.41;63.17;99919.75;1826222;77;21004;-76
2021/07/19 05:55:16;;;;;;;17.47;15.10;;;;;;;28.50;62.52;99918.77;1823269;77;21042;-78
2021/07/19 05:57:44;;;;;;;18.73;15.20;;;;;;;28.58;62.48;99916.19;1823932;77;21570;-76
2021/07/19 06:00:16;;;;;;;16.40;13.33;;;;;;;28.61;61.82;99909.91;1822597;77;21022;-79
2021/07/19 06:02:43;;;;;;;19.37;15.13;;;;;;;28.68;60.63;99918.13;1824062;77;21046;-75
2021/07/19 06:05:14;;;;;;;19.73;14.50;;;;;;;28.75;60.49;99909.87;1824282;77;21584;-77
2021/07/19 06:07:42;;;;;;;17.47;14.77;;;;;;;28.84;59.86;99916.94;1822996;77;21030;-76
2021/07/19 06:10:11;;;;;;;16.20;13.43;;;;;;;28.90;59.42;99916.13;1822502;77;21785;-78
2021/07/19 06:12:41;;;;;;;19.00;15.13;;;;;;;28.92;58.60;99922.02;1819185;77;21011;-77
2021/07/19 06:15:11;;;;;;;19.40;14.58;;;;;;;28.98;58.88;99921.78;1816481;77;21007;-76
2021/07/19 06:17:38;;;;;;;21.40;16.23;;;;;;;29.03;59.15;99931.64;1819981;77;20995;-75
2021/07/19 06:20:13;;;;;;;20.60;15.77;;;;;;;29.08;59.76;99931.81;1819323;77;21385;-77
2021/07/19 06:22:40;;;;;;;23.87;15.53;;;;;;;29.13;59.80;99932.19;1808931;78;21543;-76
2021/07/19 06:25:10;;;;;;;21.10;16.50;;;;;;;29.23;59.19;99938.84;1825360;77;20999;-75
2021/07/19 06:27:36;;;;;;;21.03;15.90;;;;;;;29.31;57.92;99934.08;1823353;77;21062;-75
2021/07/19 06:30:06;;;;;;;22.07;16.67;;;;;;;29.36;58.14;99930.92;1786779;78;21686;-75
2021/07/19 06:32:33;;;;;;;21.55;17.15;;;;;;;29.42;58.08;99936.21;1820357;77;21460;-76
2021/07/19 06:35:01;;;;;;;23.25;17.73;;;;;;;29.48;59.32;99935.95;1823250;77;21127;-77
2021/07/19 06:37:27;;;;;;;21.50;16.55;;;;;;;29.51;59.76;99936.53;1817559;77;21006;-75
2021/07/19 06:39:55;;;;;;;24.63;17.48;;;;;;;29.56;58.57;99932.59;1819926;77;21117;-75
2021/07/19 06:42:23;;;;;;;22.02;16.97;;;;;;;29.53;57.51;99941.66;1822378;77;21181;-76
2021/07/19 06:44:54;;;;;;;25.52;17.90;;;;;;;29.54;57.80;99938.48;1817907;77;21652;-75
2021/07/19 06:47:20;;;;;;;22.82;16.80;;;;;;;29.56;58.20;99933.37;1821113;77;21800;-74
2021/07/19 06:49:49;;;;;;;26.60;18.32;;;;;;;29.60;58.28;99937.52;1821469;77;21015;-74
2021/07/19 06:52:16;;;;;;;24.60;18.25;;;;;;;29.64;58.79;99937.67;1820662;77;21085;-74
2021/07/19 06:54:42;;;;;;;30.23;18.10;;;;;;;29.72;58.96;99934.91;1819566;77;21042;-73
2021/07/19 06:57:08;;;;;;;27.90;17.37;;;;;;;29.82;58.89;99938.96;1822624;77;20984;-74
2021/07/19 06:59:35;;;;;;;26.40;17.48;;;;;;;29.99;58.51;99933.74;1815876;77;21117;-75
2021/07/19 07:02:02;;;;;;;27.93;17.17;;;;;;;30.05;56.59;99935.66;1815638;77;21017;-74
2021/07/19 07:04:29;;;;;;;20.55;15.35;;;;;;;30.03;55.84;99933.89;1811411;77;21573;-74
2021/07/19 07:06:57;;;;;;;22.98;16.70;;;;;;;30.04;54.84;99932.73;1806814;77;21032;-75
2021/07/19 07:09:24;;;;;;;22.90;15.30;;;;;;;30.04;54.59;99939.61;1814159;77;21042;-75
2021/07/19 07:11:51;;;;;;;19.25;13.75;;;;;;;30.07;54.76;99938.78;1808891;77;21966;-73
2021/07/19 07:14:18;;;;;;;24.60;15.55;;;;;;;30.17;55.22;99933.59;1811146;77;21022;-74
2021/07/19 07:16:45;;;;;;;25.20;15.15;;;;;;;30.23;54.58;99929.25;1803100;77;21082;-74
2021/07/19 07:19:12;;;;;;;24.15;14.18;;;;;;;30.36;54.57;99935.23;1812627;77;21034;-75
2021/07/19 07:21:41;;;;;;;21.87;14.13;;;;;;;30.47;53.56;99924.70;1788794;78;21050;-75
2021/07/19 07:24:08;;;;;;;16.80;14.43;;;;;;;30.52;53.99;99922.91;1810964;77;21543;-73
2021/07/19 07:26:34;;;;;;;16.30;13.28;;;;;;;30.55;53.73;99922.87;1811087;77;21148;-73
2021/07/19 07:29:01;;;;;;;19.05;12.63;;;;;;;30.57;53.37;99921.88;1822189;77;21007;-75
2021/07/19 07:31:29;;;;;;;18.10;13.22;;;;;;;30.63;52.73;99928.30;1816453;77;21140;-74
2021/07/19 07:33:57;;;;;;;17.15;12.90;;;;;;;30.68;53.46;99930.63;1821474;77;21203;-74
2021/07/19 07:36:29;;;;;;;19.42;12.90;;;;;;;30.76;52.84;99924.64;1819321;77;21124;-75
2021/07/19 07:38:56;;;;;;;15.80;13.08;;;;;;;30.79;51.86;99922.45;1817890;77;21072;-73
2021/07/19 07:41:23;;;;;;;16.12;12.45;;;;;;;30.76;51.36;99914.19;1816971;77;21022;-73
2021/07/19 07:43:50;;;;;;;16.48;12.55;;;;;;;30.84;51.96;99911.59;1819308;77;21074;-75
2021/07/19 07:46:17;;;;;;;14.68;12.37;;;;;;;30.96;52.22;99904.74;1819506;77;20994;-74
2021/07/19 07:48:43;;;;;;;16.93;12.90;;;;;;;31.10;51.36;99899.08;1811548;78;21131;-72
2021/07/19 07:51:10;;;;;;;18.62;13.10;;;;;;;31.20;50.89;99892.64;1807848;78;21152;-75
2021/07/19 07:53:38;;;;;;;16.12;12.43;;;;;;;31.24;50.73;99891.21;1810354;77;21085;-73
2021/07/19 07:56:05;;;;;;;15.20;12.00;;;;;;;31.25;50.92;99888.02;1816219;77;21244;-72
2021/07/19 07:58:32;;;;;;;13.53;11.03;;;;;;;31.34;51.72;99884.80;1817781;77;21080;-72
2021/07/19 08:00:59;;;;;;;14.53;11.05;;;;;;;31.42;49.49;99877.19;1807739;77;21494;-74
2021/07/19 08:03:26;;;;;;;14.70;11.20;;;;;;;31.51;50.12;99866.42;1812663;77;21073;-75
2021/07/19 08:05:54;;;;;;;14.93;11.05;;;;;;;31.57;49.43;99855.09;1811738;77;21055;-74
2021/07/19 08:08:21;;;;;;;15.93;11.33;;;;;;;31.69;49.68;99845.47;1816723;77;21161;-74
2021/07/19 08:10:49;;;;;;;16.97;10.58;;;;;;;31.81;48.69;99835.19;1735837;78;21078;-71
2021/07/19 08:13:16;;;;;;;15.72;10.20;;;;;;;31.86;47.85;99827.83;1805801;77;21821;-72
2021/07/19 08:15:47;;;;;;;12.55;9.90;;;;;;;31.83;47.68;99819.60;1810127;77;21014;-73
2021/07/19 08:18:17;;;;;;;11.88;9.08;;;;;;;31.80;47.12;99817.07;1807488;78;21034;-71
2021/07/19 08:20:46;;;;;;;12.70;9.28;;;;;;;31.85;48.03;99812.44;1809470;77;20979;-72
2021/07/19 08:23:13;;;;;;;10.20;8.40;;;;;;;31.99;47.41;99819.15;1819149;77;20968;-73
2021/07/19 08:25:39;;;;;;;12.73;9.08;;;;;;;32.09;46.50;99831.22;1809101;77;21499;-74
2021/07/19 08:28:06;;;;;;;11.30;8.93;;;;;;;32.17;45.88;99834.63;1815291;77;21123;-73
2021/07/19 08:30:33;;;;;;;10.43;8.45;;;;;;;32.30;47.04;99839.71;1793124;78;21830;-72
2021/07/19 08:33:00;;;;;;;12.23;8.23;;;;;;;32.61;45.33;99823.77;1814310;77;21062;-72
2021/07/19 08:35:27;;;;;;;14.58;8.40;;;;;;;32.61;45.33;99823.77;1814265;77;21054;-73
2021/07/19 08:37:57;;;;;;;12.88;9.13;;;;;;;32.58;45.03;99823.84;1820205;77;22167;-73
2021/07/19 08:40:24;;;;;;;10.48;8.48;;;;;;;32.54;45.71;99838.31;1822503;78;20991;-71
2021/07/19 08:42:51;;;;;;;12.82;9.18;;;;;;;32.39;46.02;99845.47;1820796;77;21019;-72
2021/07/19 08:45:18;;;;;;;11.40;8.23;;;;;;;32.08;45.86;99850.95;1819188;77;21476;-72
2021/07/19 08:47:49;;;;;;;12.37;8.90;;;;;;;31.74;46.21;99853.26;1823046;77;21129;-72
2021/07/19 08:50:19;;;;;;;11.03;8.08;;;;;;;31.48;46.69;99863.11;1806599;77;21466;-73
2021/07/19 08:52:50;;;;;;;10.40;8.20;;;;;;;31.34;47.52;99875.73;1763852;78;21034;-72
2021/07/19 08:55:17;;;;;;;12.98;8.88;;;;;;;31.20;47.79;99880.22;1820789;77;20995;-73
2021/07/19 08:57:46;;;;;;;10.48;8.25;;;;;;;30.98;47.70;99872.80;1795238;78;21098;-72
2021/07/19 09:00:13;;;;;;;11.20;7.70;;;;;;;30.75;48.85;99874.81;1801301;77;21136;-72
2021/07/19 09:02:40;;;;;;;9.45;7.90;;;;;;;30.58;49.17;99884.06;1816759;77;21939;-72
2021/07/19 09:05:08;;;;;;;10.72;8.10;;;;;;;30.45;49.80;99883.02;1764087;79;21042;-73
2021/07/19 09:07:35;;;;;;;12.93;8.30;;;;;;;30.31;50.00;99871.55;1822060;77;21525;-72
2021/07/19 09:10:05;;;;;;;12.90;8.35;;;;;;;30.19;50.88;99876.95;1795807;77;21016;-73
2021/07/19 09:12:43;;;;;;;11.53;8.03;;;;;;;30.06;50.61;99873.88;1820337;77;21030;-72
2021/07/19 09:15:14;;;;;;;16.35;8.65;;;;;;;29.94;51.37;99890.88;1792731;78;21014;-71
2021/07/19 09:17:41;;;;;;;18.48;8.25;;;;;;;29.59;50.69;99966.20;1819073;77;21547;-70
2021/07/19 09:20:13;;;;;;;11.80;6.87;;;;;;;28.33;52.41;100009.55;1819193;77;21033;-71
2021/07/19 09:22:40;;;;;;;16.13;7.33;;;;;;;27.04;56.10;100065.20;1815094;78;21054;-73
2021/07/19 09:25:16;;;;;;;9.17;5.40;;;;;;;25.92;60.16;100086.38;1821004;77;21102;-86
2021/07/19 09:28:11;;;;;;;9.80;5.47;;;;;;;25.13;64.20;100153.58;1821819;77;21136;-87
2021/07/19 09:30:43;;;;;;;11.37;5.60;;;;;;;24.27;68.22;100094.63;1820337;77;21007;-82
2021/07/19 09:33:17;;;;;;;7.07;3.07;;;;;;;23.18;73.70;100198.13;1816348;77;21033;-80
2021/07/19 09:35:48;;;;;;;6.87;3.70;;;;;;;22.15;77.07;100201.48;1769086;78;21041;-78
2021/07/19 09:54:14;;;;;;;6.80;3.90;;;;;;;18.21;100.00;100097.97;1737827;81;22005;-83
2021/07/19 09:56:41;;;;;;;5.07;3.47;;;;;;;18.01;100.00;100075.09;1715185;82;21015;-88
2021/07/19 09:59:11;;;;;;;6.27;3.77;;;;;;;17.90;100.00;100057.05;1725738;81;21172;-87
2021/07/19 10:01:43;;;;;;;8.03;4.50;;;;;;;17.90;100.00;100033.27;1722137;81;21114;-86
2021/07/19 10:04:21;;;;;;;7.37;5.03;;;;;;;17.92;100.00;100023.74;1721783;81;21090;-88
2021/07/19 10:06:52;;;;;;;6.77;5.00;;;;;;;17.94;100.00;100032.33;1729667;81;21033;-88
2021/07/19 10:09:23;;;;;;;7.10;4.83;;;;;;;17.99;100.00;100026.75;1725357;81;21098;-88
2021/07/19 10:11:52;;;;;;;7.27;4.77;;;;;;;18.07;100.00;100029.79;1720116;81;21804;-87
2021/07/19 10:14:28;;;;;;;6.47;4.80;;;;;;;18.13;100.00;100035.23;1719365;81;21114;-84
2021/07/19 10:16:58;;;;;;;9.00;4.93;;;;;;;18.17;100.00;100029.45;1724272;81;21094;-84
2021/07/19 10:19:34;;;;;;;8.00;4.97;;;;;;;18.22;100.00;100026.00;1722316;81;21676;-84
2021/07/19 10:22:00;;;;;;;9.20;5.57;;;;;;;18.25;100.00;100022.66;1726360;81;21050;-85
2021/07/19 10:24:29;;;;;;;8.20;5.97;;;;;;;18.32;100.00;100037.04;1727888;81;21510;-81
2021/07/19 10:26:56;;;;;;;8.37;5.70;;;;;;;18.39;100.00;100050.06;1722951;81;21086;-86
2021/07/19 10:29:23;;;;;;;9.57;6.17;;;;;;;18.49;100.00;100046.48;1722022;81;21082;-84
2021/07/19 10:31:50;;;;;;;10.33;6.43;;;;;;;18.62;100.00;100054.14;1734581;81;21119;-83
2021/07/19 10:34:18;;;;;;;9.30;7.07;;;;;;;18.72;100.00;100042.20;1692474;82;21113;-73
2021/07/19 10:36:55;;;;;;;9.33;6.80;;;;;;;18.79;100.00;100036.30;1675763;81;21936;-73
2021/07/19 10:39:27;;;;;;;10.33;7.00;;;;;;;18.84;100.00;100044.24;1725425;81;21082;-73
2021/07/19 10:42:03;;;;;;;9.63;7.10;;;;;;;18.88;100.00;100067.61;1744916;80;21190;-72
2021/07/19 10:44:36;;;;;;;11.70;7.53;;;;;;;18.94;100.00;100083.12;1725045;81;21117;-73
2021/07/19 10:47:18;;;;;;;9.40;7.00;;;;;;;19.01;100.00;100096.15;1707296;82;22231;-73
2021/07/19 10:49:59;;;;;;;8.83;7.00;;;;;;;19.01;100.00;100109.68;1724360;81;21150;-74
2021/07/19 10:52:39;;;;;;;9.40;6.80;;;;;;;18.97;100.00;100128.48;1728272;82;21737;-74
2021/07/19 10:55:10;;;;;;;9.57;6.80;;;;;;;18.95;100.00;100148.30;1721459;81;21145;-73
2021/07/19 10:57:41;;;;;;;8.18;6.12;;;;;;;18.94;100.00;100189.45;1721247;81;21106;-73
2021/07/19 11:00:16;;;;;;;9.13;5.87;;;;;;;18.93;100.00;100230.39;1723917;81;21114;-73
2021/07/19 11:02:43;;;;;;;7.50;5.90;;;;;;;18.94;100.00;100230.61;1726074;81;21668;-73
2021/07/19 11:05:12;;;;;;;10.13;6.97;;;;;;;18.93;100.00;100229.82;1727185;81;21126;-73
2021/07/19 11:07:42;;;;;;;12.20;8.50;;;;;;;18.92;100.00;100209.83;1730900;81;21011;-77
2021/07/19 11:10:18;;;;;;;;;;;;;;;18.95;100.00;100210.02;1701313;82;21059;-80
2021/07/19 11:12:52;;;;;;;14.10;10.50;;;;;;;19.01;100.00;100221.44;1723420;81;20918;-78
2021/07/19 11:15:24;;;;;;;13.20;10.00;;;;;;;19.04;100.00;100220.01;1730143;81;21195;-78
2021/07/19 11:17:51;;;;;;;19.27;12.97;;;;;;;19.09;100.00;100215.23;1733227;81;21060;-76
2021/07/19 11:20:18;;;;;;;17.87;13.47;;;;;;;19.15;100.00;100192.82;1697562;82;21164;-78
2021/07/19 11:22:45;;;;;;;17.47;13.80;;;;;;;19.22;100.00;100171.48;1733352;81;21616;-76
2021/07/19 11:25:15;;;;;;;15.80;13.63;;;;;;;19.30;100.00;100148.19;1722909;81;21078;-82
2021/07/19 11:27:43;;;;;;;14.23;12.37;;;;;;;19.36;100.00;100112.48;1726525;82;21122;-72
2021/07/19 11:30:14;;;;;;;14.87;13.07;;;;;;;19.43;100.00;100084.31;1725212;81;21063;-72
2021/07/19 11:32:41;;;;;;;20.60;16.23;;;;;;;19.51;100.00;100060.99;1722304;82;21067;-71
2021/07/19 11:35:16;;;;;;;16.20;14.10;;;;;;;19.59;100.00;100039.84;1724856;81;21106;-73
2021/07/19 11:37:46;;;;;;;18.57;15.43;;;;;;;19.65;100.00;100026.93;1723807;81;21028;-72
2021/07/19 11:40:29;;;;;;;18.77;16.27;;;;;;;19.71;100.00;100016.66;1717795;82;21128;-72
2021/07/19 11:43:08;;;;;;;16.70;14.83;;;;;;;19.78;100.00;100006.90;1727697;81;21051;-72